sensor_id;sensor_type;location;lat;lon;timestamp;P1;durP1;ratioP1;P2;durP2;ratioP2
12585;SDS011;6358;50.760;0.282;2024-01-16T00:01:56;2.47;;;1.53;;
12585;SDS011;6358;50.760;0.282;2024-01-16T00:04:22;1.50;;;1.40;;
12585;SDS011;6358;50.760;0.282;2024-01-16T00:06:48;2.60;;;1.50;;
12585;SDS011;6358;50.760;0.282;2024-01-16T00:09:14;1.83;;;1.40;;
12585;SDS011;6358;50.760;0.282;2024-01-16T00:11:41;2.33;;;1.43;;
12585;SDS011;6358;50.760;0.282;2024-01-16T00:14:07;2.70;;;1.60;;
12585;SDS011;6358;50.760;0.282;2024-01-16T00:16:33;1.67;;;1.47;;
12585;SDS011;6358;50.760;0.282;2024-01-16T00:18:59;1.90;;;1.50;;
12585;SDS011;6358;50.760;0.282;2024-01-16T00:21:25;2.03;;;1.50;;
12585;SDS011;6358;50.760;0.282;2024-01-16T00:23:51;1.67;;;1.50;;
12585;SDS011;6358;50.760;0.282;2024-01-16T00:26:23;2.87;;;1.70;;
12585;SDS011;6358;50.760;0.282;2024-01-16T00:28:49;1.50;;;1.40;;
12585;SDS011;6358;50.760;0.282;2024-01-16T00:31:16;1.83;;;1.50;;
12585;SDS011;6358;50.760;0.282;2024-01-16T00:33:42;2.10;;;1.50;;
12585;SDS011;6358;50.760;0.282;2024-01-16T00:36:08;1.40;;;1.30;;
12585;SDS011;6358;50.760;0.282;2024-01-16T00:38:34;1.93;;;1.60;;
12585;SDS011;6358;50.760;0.282;2024-01-16T00:41:00;1.70;;;1.50;;
12585;SDS011;6358;50.760;0.282;2024-01-16T00:43:26;2.97;;;1.80;;
12585;SDS011;6358;50.760;0.282;2024-01-16T00:45:52;2.00;;;1.70;;
12585;SDS011;6358;50.760;0.282;2024-01-16T00:48:19;2.77;;;1.50;;
12585;SDS011;6358;50.760;0.282;2024-01-16T00:50:46;2.17;;;1.60;;
12585;SDS011;6358;50.760;0.282;2024-01-16T00:53:15;1.83;;;1.53;;
12585;SDS011;6358;50.760;0.282;2024-01-16T00:55:42;1.67;;;1.40;;
12585;SDS011;6358;50.760;0.282;2024-01-16T00:58:08;2.47;;;1.80;;
12585;SDS011;6358;50.760;0.282;2024-01-16T01:00:34;2.17;;;1.50;;
12585;SDS011;6358;50.760;0.282;2024-01-16T01:03:02;1.80;;;1.47;;
12585;SDS011;6358;50.760;0.282;2024-01-16T01:05:31;1.80;;;1.60;;
12585;SDS011;6358;50.760;0.282;2024-01-16T01:07:57;2.63;;;1.63;;
12585;SDS011;6358;50.760;0.282;2024-01-16T01:10:23;3.17;;;1.67;;
12585;SDS011;6358;50.760;0.282;2024-01-16T01:12:50;1.70;;;1.60;;
12585;SDS011;6358;50.760;0.282;2024-01-16T01:15:19;1.90;;;1.63;;
12585;SDS011;6358;50.760;0.282;2024-01-16T01:17:47;2.17;;;1.80;;
12585;SDS011;6358;50.760;0.282;2024-01-16T01:20:14;2.77;;;1.83;;
12585;SDS011;6358;50.760;0.282;2024-01-16T01:22:40;2.27;;;1.70;;
12585;SDS011;6358;50.760;0.282;2024-01-16T01:25:07;1.97;;;1.70;;
12585;SDS011;6358;50.760;0.282;2024-01-16T01:27:33;1.93;;;1.60;;
12585;SDS011;6358;50.760;0.282;2024-01-16T01:29:59;2.10;;;1.67;;
12585;SDS011;6358;50.760;0.282;2024-01-16T01:32:25;1.50;;;1.30;;
12585;SDS011;6358;50.760;0.282;2024-01-16T01:34:52;1.80;;;1.67;;
12585;SDS011;6358;50.760;0.282;2024-01-16T01:37:18;2.37;;;1.57;;
12585;SDS011;6358;50.760;0.282;2024-01-16T01:39:44;1.77;;;1.60;;
12585;SDS011;6358;50.760;0.282;2024-01-16T01:42:10;1.93;;;1.47;;
12585;SDS011;6358;50.760;0.282;2024-01-16T01:44:36;1.70;;;1.60;;
12585;SDS011;6358;50.760;0.282;2024-01-16T01:47:02;1.97;;;1.60;;
12585;SDS011;6358;50.760;0.282;2024-01-16T01:49:30;1.67;;;1.47;;
12585;SDS011;6358;50.760;0.282;2024-01-16T01:51:56;1.50;;;1.40;;
12585;SDS011;6358;50.760;0.282;2024-01-16T01:54:22;1.60;;;1.50;;
12585;SDS011;6358;50.760;0.282;2024-01-16T01:56:49;2.57;;;1.77;;
12585;SDS011;6358;50.760;0.282;2024-01-16T01:59:19;1.60;;;1.50;;
12585;SDS011;6358;50.760;0.282;2024-01-16T02:01:46;1.87;;;1.50;;
12585;SDS011;6358;50.760;0.282;2024-01-16T02:04:14;1.67;;;1.40;;
12585;SDS011;6358;50.760;0.282;2024-01-16T02:06:41;1.90;;;1.60;;
12585;SDS011;6358;50.760;0.282;2024-01-16T02:09:08;1.53;;;1.43;;
12585;SDS011;6358;50.760;0.282;2024-01-16T02:11:34;1.93;;;1.43;;
12585;SDS011;6358;50.760;0.282;2024-01-16T02:14:01;2.57;;;1.47;;
12585;SDS011;6358;50.760;0.282;2024-01-16T02:16:34;1.47;;;1.30;;
12585;SDS011;6358;50.760;0.282;2024-01-16T02:19:01;1.50;;;1.40;;
12585;SDS011;6358;50.760;0.282;2024-01-16T02:21:28;1.93;;;1.40;;
12585;SDS011;6358;50.760;0.282;2024-01-16T02:23:54;1.47;;;1.30;;
12585;SDS011;6358;50.760;0.282;2024-01-16T02:26:20;1.70;;;1.50;;
12585;SDS011;6358;50.760;0.282;2024-01-16T02:28:46;1.70;;;1.40;;
12585;SDS011;6358;50.760;0.282;2024-01-16T02:31:13;1.83;;;1.50;;
12585;SDS011;6358;50.760;0.282;2024-01-16T02:33:39;2.60;;;1.60;;
12585;SDS011;6358;50.760;0.282;2024-01-16T02:36:05;1.47;;;1.37;;
12585;SDS011;6358;50.760;0.282;2024-01-16T02:38:31;1.43;;;1.33;;
12585;SDS011;6358;50.760;0.282;2024-01-16T02:40:57;2.10;;;1.40;;
12585;SDS011;6358;50.760;0.282;2024-01-16T02:43:23;1.97;;;1.20;;
12585;SDS011;6358;50.760;0.282;2024-01-16T02:45:51;1.53;;;1.43;;
12585;SDS011;6358;50.760;0.282;2024-01-16T02:48:18;1.63;;;1.37;;
12585;SDS011;6358;50.760;0.282;2024-01-16T02:50:44;1.90;;;1.47;;
12585;SDS011;6358;50.760;0.282;2024-01-16T02:53:10;2.60;;;1.40;;
12585;SDS011;6358;50.760;0.282;2024-01-16T02:55:36;2.13;;;1.27;;
12585;SDS011;6358;50.760;0.282;2024-01-16T02:58:03;1.57;;;1.30;;
12585;SDS011;6358;50.760;0.282;2024-01-16T03:00:29;2.13;;;1.40;;
12585;SDS011;6358;50.760;0.282;2024-01-16T03:02:55;1.50;;;1.40;;
12585;SDS011;6358;50.760;0.282;2024-01-16T03:05:21;1.40;;;1.30;;
12585;SDS011;6358;50.760;0.282;2024-01-16T03:07:47;1.53;;;1.43;;
12585;SDS011;6358;50.760;0.282;2024-01-16T03:10:13;1.87;;;1.40;;
12585;SDS011;6358;50.760;0.282;2024-01-16T03:12:39;1.40;;;1.30;;
12585;SDS011;6358;50.760;0.282;2024-01-16T03:15:05;1.67;;;1.17;;
12585;SDS011;6358;50.760;0.282;2024-01-16T03:17:32;1.60;;;1.30;;
12585;SDS011;6358;50.760;0.282;2024-01-16T03:19:58;1.67;;;1.37;;
12585;SDS011;6358;50.760;0.282;2024-01-16T03:22:24;1.37;;;1.27;;
12585;SDS011;6358;50.760;0.282;2024-01-16T03:24:50;1.50;;;1.30;;
12585;SDS011;6358;50.760;0.282;2024-01-16T03:27:16;2.47;;;1.50;;
12585;SDS011;6358;50.760;0.282;2024-01-16T03:29:43;2.10;;;1.53;;
12585;SDS011;6358;50.760;0.282;2024-01-16T03:32:09;1.23;;;1.13;;
12585;SDS011;6358;50.760;0.282;2024-01-16T03:34:35;1.30;;;1.20;;
12585;SDS011;6358;50.760;0.282;2024-01-16T03:37:01;1.80;;;1.40;;
12585;SDS011;6358;50.760;0.282;2024-01-16T03:39:27;1.27;;;1.13;;
12585;SDS011;6358;50.760;0.282;2024-01-16T03:41:53;1.67;;;1.30;;
12585;SDS011;6358;50.760;0.282;2024-01-16T03:44:19;1.30;;;1.17;;
12585;SDS011;6358;50.760;0.282;2024-01-16T03:46:45;1.10;;;1.00;;
12585;SDS011;6358;50.760;0.282;2024-01-16T03:49:11;1.80;;;1.40;;
12585;SDS011;6358;50.760;0.282;2024-01-16T03:51:38;1.77;;;1.20;;
12585;SDS011;6358;50.760;0.282;2024-01-16T03:54:07;1.60;;;1.13;;
12585;SDS011;6358;50.760;0.282;2024-01-16T03:56:34;1.50;;;1.40;;
12585;SDS011;6358;50.760;0.282;2024-01-16T03:59:00;2.03;;;1.30;;
12585;SDS011;6358;50.760;0.282;2024-01-16T04:01:30;1.20;;;1.10;;
12585;SDS011;6358;50.760;0.282;2024-01-16T04:03:57;1.30;;;1.20;;
12585;SDS011;6358;50.760;0.282;2024-01-16T04:06:23;1.10;;;1.00;;
12585;SDS011;6358;50.760;0.282;2024-01-16T04:08:49;1.40;;;1.00;;
12585;SDS011;6358;50.760;0.282;2024-01-16T04:11:15;1.33;;;1.17;;
12585;SDS011;6358;50.760;0.282;2024-01-16T04:13:41;1.67;;;1.10;;
12585;SDS011;6358;50.760;0.282;2024-01-16T04:16:07;1.43;;;1.00;;
12585;SDS011;6358;50.760;0.282;2024-01-16T04:18:37;1.17;;;1.07;;
12585;SDS011;6358;50.760;0.282;2024-01-16T04:21:03;1.13;;;1.03;;
12585;SDS011;6358;50.760;0.282;2024-01-16T04:23:29;1.00;;;0.90;;
12585;SDS011;6358;50.760;0.282;2024-01-16T04:25:55;1.23;;;1.13;;
12585;SDS011;6358;50.760;0.282;2024-01-16T04:28:21;1.10;;;1.00;;
12585;SDS011;6358;50.760;0.282;2024-01-16T04:30:47;1.30;;;1.07;;
12585;SDS011;6358;50.760;0.282;2024-01-16T04:33:13;0.97;;;0.87;;
12585;SDS011;6358;50.760;0.282;2024-01-16T04:35:39;1.17;;;1.00;;
12585;SDS011;6358;50.760;0.282;2024-01-16T04:38:05;1.37;;;1.00;;
12585;SDS011;6358;50.760;0.282;2024-01-16T04:40:32;0.90;;;0.90;;
12585;SDS011;6358;50.760;0.282;2024-01-16T04:42:59;1.37;;;1.10;;
12585;SDS011;6358;50.760;0.282;2024-01-16T04:45:25;1.43;;;1.10;;
12585;SDS011;6358;50.760;0.282;2024-01-16T04:47:51;1.00;;;0.90;;
12585;SDS011;6358;50.760;0.282;2024-01-16T04:50:18;1.77;;;1.00;;
12585;SDS011;6358;50.760;0.282;2024-01-16T04:52:44;1.03;;;0.93;;
12585;SDS011;6358;50.760;0.282;2024-01-16T04:55:10;1.17;;;0.97;;
12585;SDS011;6358;50.760;0.282;2024-01-16T04:57:36;0.97;;;0.80;;
12585;SDS011;6358;50.760;0.282;2024-01-16T05:00:03;0.80;;;0.80;;
12585;SDS011;6358;50.760;0.282;2024-01-16T05:02:32;0.97;;;0.90;;
12585;SDS011;6358;50.760;0.282;2024-01-16T05:04:59;0.80;;;0.80;;
12585;SDS011;6358;50.760;0.282;2024-01-16T05:07:25;1.37;;;0.90;;
12585;SDS011;6358;50.760;0.282;2024-01-16T05:09:51;1.40;;;1.00;;
12585;SDS011;6358;50.760;0.282;2024-01-16T05:12:18;1.10;;;1.00;;
12585;SDS011;6358;50.760;0.282;2024-01-16T05:14:45;1.10;;;1.00;;
12585;SDS011;6358;50.760;0.282;2024-01-16T05:17:11;1.23;;;1.10;;
12585;SDS011;6358;50.760;0.282;2024-01-16T05:19:37;1.10;;;1.00;;
12585;SDS011;6358;50.760;0.282;2024-01-16T05:22:04;2.10;;;1.00;;
12585;SDS011;6358;50.760;0.282;2024-01-16T05:24:30;0.90;;;0.90;;
12585;SDS011;6358;50.760;0.282;2024-01-16T05:26:56;1.00;;;1.00;;
12585;SDS011;6358;50.760;0.282;2024-01-16T05:29:22;1.37;;;0.90;;
12585;SDS011;6358;50.760;0.282;2024-01-16T05:31:48;1.17;;;0.93;;
12585;SDS011;6358;50.760;0.282;2024-01-16T05:34:14;0.80;;;0.80;;
12585;SDS011;6358;50.760;0.282;2024-01-16T05:36:41;1.77;;;0.80;;
12585;SDS011;6358;50.760;0.282;2024-01-16T05:39:07;1.00;;;0.90;;
12585;SDS011;6358;50.760;0.282;2024-01-16T05:41:34;1.73;;;1.20;;
12585;SDS011;6358;50.760;0.282;2024-01-16T05:44:00;0.90;;;0.90;;
12585;SDS011;6358;50.760;0.282;2024-01-16T05:46:32;2.23;;;1.00;;
12585;SDS011;6358;50.760;0.282;2024-01-16T05:48:59;0.70;;;0.70;;
12585;SDS011;6358;50.760;0.282;2024-01-16T05:51:27;1.23;;;1.10;;
12585;SDS011;6358;50.760;0.282;2024-01-16T05:53:54;1.17;;;0.83;;
12585;SDS011;6358;50.760;0.282;2024-01-16T05:56:20;0.87;;;0.87;;
12585;SDS011;6358;50.760;0.282;2024-01-16T05:58:46;0.90;;;0.90;;
12585;SDS011;6358;50.760;0.282;2024-01-16T06:01:13;1.70;;;0.90;;
12585;SDS011;6358;50.760;0.282;2024-01-16T06:03:39;1.00;;;0.90;;
12585;SDS011;6358;50.760;0.282;2024-01-16T06:06:05;1.10;;;1.00;;
12585;SDS011;6358;50.760;0.282;2024-01-16T06:08:32;1.13;;;0.80;;
12585;SDS011;6358;50.760;0.282;2024-01-16T06:11:01;0.93;;;0.90;;
12585;SDS011;6358;50.760;0.282;2024-01-16T06:13:27;1.70;;;1.00;;
12585;SDS011;6358;50.760;0.282;2024-01-16T06:15:55;1.03;;;0.90;;
12585;SDS011;6358;50.760;0.282;2024-01-16T06:18:21;0.70;;;0.70;;
12585;SDS011;6358;50.760;0.282;2024-01-16T06:20:48;1.10;;;1.00;;
12585;SDS011;6358;50.760;0.282;2024-01-16T06:23:14;1.00;;;0.83;;
12585;SDS011;6358;50.760;0.282;2024-01-16T06:25:40;0.70;;;0.70;;
12585;SDS011;6358;50.760;0.282;2024-01-16T06:28:06;0.90;;;0.90;;
12585;SDS011;6358;50.760;0.282;2024-01-16T06:30:32;0.97;;;0.87;;
12585;SDS011;6358;50.760;0.282;2024-01-16T06:32:59;1.20;;;0.90;;
12585;SDS011;6358;50.760;0.282;2024-01-16T06:35:25;0.80;;;0.80;;
12585;SDS011;6358;50.760;0.282;2024-01-16T06:37:51;1.00;;;0.73;;
12585;SDS011;6358;50.760;0.282;2024-01-16T06:40:17;0.70;;;0.70;;
12585;SDS011;6358;50.760;0.282;2024-01-16T06:42:43;0.70;;;0.70;;
12585;SDS011;6358;50.760;0.282;2024-01-16T06:45:10;1.10;;;0.80;;
12585;SDS011;6358;50.760;0.282;2024-01-16T06:47:38;0.53;;;0.53;;
12585;SDS011;6358;50.760;0.282;2024-01-16T06:50:05;1.37;;;0.90;;
12585;SDS011;6358;50.760;0.282;2024-01-16T06:52:31;0.67;;;0.67;;
12585;SDS011;6358;50.760;0.282;2024-01-16T06:54:57;1.70;;;0.87;;
12585;SDS011;6358;50.760;0.282;2024-01-16T06:57:23;0.80;;;0.67;;
12585;SDS011;6358;50.760;0.282;2024-01-16T06:59:49;0.80;;;0.57;;
12585;SDS011;6358;50.760;0.282;2024-01-16T07:02:15;0.90;;;0.63;;
12585;SDS011;6358;50.760;0.282;2024-01-16T07:04:41;1.10;;;0.80;;
12585;SDS011;6358;50.760;0.282;2024-01-16T07:07:08;0.57;;;0.57;;
12585;SDS011;6358;50.760;0.282;2024-01-16T07:09:34;0.60;;;0.60;;
12585;SDS011;6358;50.760;0.282;2024-01-16T07:12:00;1.00;;;0.73;;
12585;SDS011;6358;50.760;0.282;2024-01-16T07:14:26;0.63;;;0.63;;
12585;SDS011;6358;50.760;0.282;2024-01-16T07:16:52;1.17;;;1.00;;
12585;SDS011;6358;50.760;0.282;2024-01-16T07:19:18;1.30;;;0.80;;
12585;SDS011;6358;50.760;0.282;2024-01-16T07:21:44;0.73;;;0.70;;
12585;SDS011;6358;50.760;0.282;2024-01-16T07:24:10;1.20;;;0.73;;
12585;SDS011;6358;50.760;0.282;2024-01-16T07:26:38;1.20;;;0.80;;
12585;SDS011;6358;50.760;0.282;2024-01-16T07:29:04;2.10;;;0.70;;
12585;SDS011;6358;50.760;0.282;2024-01-16T07:31:30;1.43;;;0.80;;
12585;SDS011;6358;50.760;0.282;2024-01-16T07:33:56;0.70;;;0.70;;
12585;SDS011;6358;50.760;0.282;2024-01-16T07:36:22;1.13;;;0.70;;
12585;SDS011;6358;50.760;0.282;2024-01-16T07:38:48;1.47;;;0.90;;
12585;SDS011;6358;50.760;0.282;2024-01-16T07:41:14;2.10;;;0.80;;
12585;SDS011;6358;50.760;0.282;2024-01-16T07:43:40;0.77;;;0.67;;
12585;SDS011;6358;50.760;0.282;2024-01-16T07:46:07;0.93;;;0.80;;
12585;SDS011;6358;50.760;0.282;2024-01-16T07:48:33;1.20;;;0.60;;
12585;SDS011;6358;50.760;0.282;2024-01-16T07:50:59;0.60;;;0.60;;
12585;SDS011;6358;50.760;0.282;2024-01-16T07:53:25;1.57;;;0.90;;
12585;SDS011;6358;50.760;0.282;2024-01-16T07:55:53;0.80;;;0.80;;
12585;SDS011;6358;50.760;0.282;2024-01-16T07:58:19;0.70;;;0.70;;
12585;SDS011;6358;50.760;0.282;2024-01-16T08:00:46;1.20;;;1.07;;
12585;SDS011;6358;50.760;0.282;2024-01-16T08:03:12;1.73;;;0.80;;
12585;SDS011;6358;50.760;0.282;2024-01-16T08:05:39;1.10;;;0.90;;
12585;SDS011;6358;50.760;0.282;2024-01-16T08:08:08;0.77;;;0.77;;
12585;SDS011;6358;50.760;0.282;2024-01-16T08:10:37;2.10;;;1.00;;
12585;SDS011;6358;50.760;0.282;2024-01-16T08:13:03;1.73;;;1.00;;
12585;SDS011;6358;50.760;0.282;2024-01-16T08:15:29;1.67;;;1.20;;
12585;SDS011;6358;50.760;0.282;2024-01-16T08:17:56;1.63;;;0.83;;
12585;SDS011;6358;50.760;0.282;2024-01-16T08:20:22;0.83;;;0.80;;
12585;SDS011;6358;50.760;0.282;2024-01-16T08:22:48;0.97;;;0.80;;
12585;SDS011;6358;50.760;0.282;2024-01-16T08:25:15;2.57;;;1.20;;
12585;SDS011;6358;50.760;0.282;2024-01-16T08:27:41;1.20;;;0.87;;
12585;SDS011;6358;50.760;0.282;2024-01-16T08:30:09;1.47;;;1.00;;
12585;SDS011;6358;50.760;0.282;2024-01-16T08:32:36;2.00;;;0.97;;
12585;SDS011;6358;50.760;0.282;2024-01-16T08:35:02;1.10;;;0.93;;
12585;SDS011;6358;50.760;0.282;2024-01-16T08:37:31;1.07;;;1.00;;
12585;SDS011;6358;50.760;0.282;2024-01-16T08:39:57;3.53;;;1.20;;
12585;SDS011;6358;50.760;0.282;2024-01-16T08:42:24;1.00;;;0.90;;
12585;SDS011;6358;50.760;0.282;2024-01-16T08:44:50;2.83;;;1.20;;
12585;SDS011;6358;50.760;0.282;2024-01-16T08:47:16;4.37;;;1.10;;
12585;SDS011;6358;50.760;0.282;2024-01-16T08:49:42;3.97;;;1.47;;
12585;SDS011;6358;50.760;0.282;2024-01-16T08:52:08;2.37;;;1.27;;
12585;SDS011;6358;50.760;0.282;2024-01-16T08:54:35;2.03;;;1.33;;
12585;SDS011;6358;50.760;0.282;2024-01-16T08:57:01;1.63;;;1.53;;
12585;SDS011;6358;50.760;0.282;2024-01-16T08:59:27;1.33;;;1.20;;
12585;SDS011;6358;50.760;0.282;2024-01-16T09:01:53;1.83;;;1.57;;
12585;SDS011;6358;50.760;0.282;2024-01-16T09:04:20;2.53;;;1.43;;
12585;SDS011;6358;50.760;0.282;2024-01-16T09:06:46;3.10;;;1.77;;
12585;SDS011;6358;50.760;0.282;2024-01-16T09:09:12;6.43;;;1.50;;
12585;SDS011;6358;50.760;0.282;2024-01-16T09:11:40;3.50;;;1.80;;
12585;SDS011;6358;50.760;0.282;2024-01-16T09:14:07;1.97;;;1.37;;
12585;SDS011;6358;50.760;0.282;2024-01-16T09:16:34;1.87;;;1.50;;
12585;SDS011;6358;50.760;0.282;2024-01-16T09:19:00;5.77;;;1.70;;
12585;SDS011;6358;50.760;0.282;2024-01-16T09:21:26;2.57;;;1.70;;
12585;SDS011;6358;50.760;0.282;2024-01-16T09:23:53;3.23;;;1.87;;
12585;SDS011;6358;50.760;0.282;2024-01-16T09:26:19;4.33;;;2.07;;
12585;SDS011;6358;50.760;0.282;2024-01-16T09:28:46;3.17;;;1.93;;
12585;SDS011;6358;50.760;0.282;2024-01-16T09:31:12;2.10;;;1.90;;
12585;SDS011;6358;50.760;0.282;2024-01-16T09:33:38;3.90;;;1.73;;
12585;SDS011;6358;50.760;0.282;2024-01-16T09:36:04;2.00;;;1.60;;
12585;SDS011;6358;50.760;0.282;2024-01-16T09:38:30;4.00;;;1.70;;
12585;SDS011;6358;50.760;0.282;2024-01-16T09:40:57;2.77;;;1.90;;
12585;SDS011;6358;50.760;0.282;2024-01-16T09:43:25;3.33;;;1.93;;
12585;SDS011;6358;50.760;0.282;2024-01-16T09:45:52;2.00;;;1.80;;
12585;SDS011;6358;50.760;0.282;2024-01-16T09:48:20;4.17;;;1.77;;
12585;SDS011;6358;50.760;0.282;2024-01-16T09:50:46;3.27;;;1.80;;
12585;SDS011;6358;50.760;0.282;2024-01-16T09:53:14;2.70;;;2.00;;
12585;SDS011;6358;50.760;0.282;2024-01-16T09:55:40;2.20;;;2.00;;
12585;SDS011;6358;50.760;0.282;2024-01-16T09:58:07;3.30;;;2.20;;
12585;SDS011;6358;50.760;0.282;2024-01-16T10:00:37;3.20;;;2.17;;
12585;SDS011;6358;50.760;0.282;2024-01-16T10:03:04;1.90;;;1.70;;
12585;SDS011;6358;50.760;0.282;2024-01-16T10:05:30;3.07;;;2.10;;
12585;SDS011;6358;50.760;0.282;2024-01-16T10:07:57;2.43;;;2.20;;
12585;SDS011;6358;50.760;0.282;2024-01-16T10:10:24;2.97;;;1.87;;
12585;SDS011;6358;50.760;0.282;2024-01-16T10:12:53;2.40;;;2.00;;
12585;SDS011;6358;50.760;0.282;2024-01-16T10:15:19;2.53;;;2.10;;
12585;SDS011;6358;50.760;0.282;2024-01-16T10:17:46;2.63;;;2.20;;
12585;SDS011;6358;50.760;0.282;2024-01-16T10:20:12;2.50;;;2.10;;
12585;SDS011;6358;50.760;0.282;2024-01-16T10:22:38;2.77;;;2.13;;
12585;SDS011;6358;50.760;0.282;2024-01-16T10:27:32;2.87;;;2.20;;
12585;SDS011;6358;50.760;0.282;2024-01-16T10:29:58;2.60;;;2.10;;
12585;SDS011;6358;50.760;0.282;2024-01-16T10:32:28;2.97;;;2.10;;
12585;SDS011;6358;50.760;0.282;2024-01-16T10:35:02;2.53;;;2.00;;
12585;SDS011;6358;50.760;0.282;2024-01-16T10:40:09;2.60;;;2.17;;
12585;SDS011;6358;50.760;0.282;2024-01-16T10:42:36;2.63;;;2.10;;
12585;SDS011;6358;50.760;0.282;2024-01-16T10:45:04;2.90;;;2.00;;
12585;SDS011;6358;50.760;0.282;2024-01-16T10:47:30;2.87;;;1.90;;
12585;SDS011;6358;50.760;0.282;2024-01-16T10:50:00;4.47;;;2.23;;
12585;SDS011;6358;50.760;0.282;2024-01-16T10:52:27;3.77;;;2.20;;
12585;SDS011;6358;50.760;0.282;2024-01-16T10:54:53;6.63;;;2.20;;
12585;SDS011;6358;50.760;0.282;2024-01-16T10:57:23;3.43;;;2.30;;
12585;SDS011;6358;50.760;0.282;2024-01-16T10:59:52;3.70;;;2.10;;
12585;SDS011;6358;50.760;0.282;2024-01-16T11:02:21;3.77;;;2.17;;
12585;SDS011;6358;50.760;0.282;2024-01-16T11:04:50;8.00;;;2.17;;
12585;SDS011;6358;50.760;0.282;2024-01-16T11:07:19;3.60;;;1.93;;
12585;SDS011;6358;50.760;0.282;2024-01-16T11:09:47;2.70;;;1.90;;
12585;SDS011;6358;50.760;0.282;2024-01-16T11:12:14;5.73;;;2.20;;
12585;SDS011;6358;50.760;0.282;2024-01-16T11:14:43;5.00;;;2.30;;
12585;SDS011;6358;50.760;0.282;2024-01-16T11:17:11;5.27;;;2.03;;
12585;SDS011;6358;50.760;0.282;2024-01-16T11:19:43;3.00;;;1.93;;
12585;SDS011;6358;50.760;0.282;2024-01-16T11:22:09;5.00;;;2.20;;
12585;SDS011;6358;50.760;0.282;2024-01-16T11:24:35;3.40;;;2.00;;
12585;SDS011;6358;50.760;0.282;2024-01-16T11:27:01;3.33;;;1.80;;
12585;SDS011;6358;50.760;0.282;2024-01-16T11:31:55;5.33;;;2.10;;
12585;SDS011;6358;50.760;0.282;2024-01-16T11:37:12;3.27;;;1.70;;
12585;SDS011;6358;50.760;0.282;2024-01-16T11:39:39;5.43;;;1.60;;
12585;SDS011;6358;50.760;0.282;2024-01-16T11:42:08;1.83;;;1.63;;
12585;SDS011;6358;50.760;0.282;2024-01-16T11:47:07;3.50;;;1.83;;
12585;SDS011;6358;50.760;0.282;2024-01-16T11:49:34;2.83;;;1.60;;
12585;SDS011;6358;50.760;0.282;2024-01-16T11:52:00;3.23;;;1.70;;
12585;SDS011;6358;50.760;0.282;2024-01-16T11:54:27;2.80;;;1.60;;
12585;SDS011;6358;50.760;0.282;2024-01-16T12:01:49;2.73;;;1.67;;
12585;SDS011;6358;50.760;0.282;2024-01-16T12:04:17;2.13;;;1.50;;
12585;SDS011;6358;50.760;0.282;2024-01-16T12:06:46;1.63;;;1.30;;
12585;SDS011;6358;50.760;0.282;2024-01-16T12:09:25;1.50;;;1.30;;
12585;SDS011;6358;50.760;0.282;2024-01-16T12:11:58;2.10;;;1.50;;
12585;SDS011;6358;50.760;0.282;2024-01-16T12:14:26;2.73;;;1.53;;
12585;SDS011;6358;50.760;0.282;2024-01-16T12:16:52;1.80;;;1.50;;
12585;SDS011;6358;50.760;0.282;2024-01-16T12:19:19;2.40;;;1.40;;
12585;SDS011;6358;50.760;0.282;2024-01-16T12:21:45;1.87;;;1.27;;
12585;SDS011;6358;50.760;0.282;2024-01-16T12:24:11;1.90;;;1.30;;
12585;SDS011;6358;50.760;0.282;2024-01-16T12:26:38;1.53;;;1.27;;
12585;SDS011;6358;50.760;0.282;2024-01-16T12:29:09;1.60;;;1.30;;
12585;SDS011;6358;50.760;0.282;2024-01-16T12:31:35;1.30;;;1.20;;
12585;SDS011;6358;50.760;0.282;2024-01-16T12:34:05;1.73;;;1.30;;
12585;SDS011;6358;50.760;0.282;2024-01-16T12:36:32;1.90;;;1.30;;
12585;SDS011;6358;50.760;0.282;2024-01-16T12:38:58;1.70;;;1.20;;
12585;SDS011;6358;50.760;0.282;2024-01-16T12:41:24;1.53;;;1.10;;
12585;SDS011;6358;50.760;0.282;2024-01-16T12:43:52;2.10;;;1.30;;
12585;SDS011;6358;50.760;0.282;2024-01-16T12:46:18;2.03;;;1.00;;
12585;SDS011;6358;50.760;0.282;2024-01-16T12:48:44;3.37;;;1.43;;
12585;SDS011;6358;50.760;0.282;2024-01-16T12:51:19;2.40;;;1.03;;
12585;SDS011;6358;50.760;0.282;2024-01-16T12:53:46;2.60;;;1.00;;
12585;SDS011;6358;50.760;0.282;2024-01-16T12:56:12;1.03;;;0.93;;
12585;SDS011;6358;50.760;0.282;2024-01-16T12:58:38;1.57;;;1.13;;
12585;SDS011;6358;50.760;0.282;2024-01-16T13:01:24;1.43;;;1.10;;
12585;SDS011;6358;50.760;0.282;2024-01-16T13:03:51;1.70;;;1.00;;
12585;SDS011;6358;50.760;0.282;2024-01-16T13:06:18;2.03;;;1.27;;
12585;SDS011;6358;50.760;0.282;2024-01-16T13:08:47;2.37;;;1.20;;
12585;SDS011;6358;50.760;0.282;2024-01-16T13:11:14;4.47;;;1.20;;
12585;SDS011;6358;50.760;0.282;2024-01-16T13:13:46;1.50;;;0.90;;
12585;SDS011;6358;50.760;0.282;2024-01-16T13:16:13;3.17;;;1.00;;
12585;SDS011;6358;50.760;0.282;2024-01-16T13:18:40;1.67;;;1.37;;
12585;SDS011;6358;50.760;0.282;2024-01-16T13:21:06;1.50;;;1.23;;
12585;SDS011;6358;50.760;0.282;2024-01-16T13:23:32;3.20;;;1.30;;
12585;SDS011;6358;50.760;0.282;2024-01-16T13:25:58;2.47;;;0.97;;
12585;SDS011;6358;50.760;0.282;2024-01-16T13:28:24;1.13;;;1.03;;
12585;SDS011;6358;50.760;0.282;2024-01-16T13:30:51;1.13;;;1.00;;
12585;SDS011;6358;50.760;0.282;2024-01-16T13:33:17;1.30;;;1.00;;
12585;SDS011;6358;50.760;0.282;2024-01-16T13:35:44;1.23;;;1.07;;
12585;SDS011;6358;50.760;0.282;2024-01-16T13:38:14;1.23;;;1.10;;
12585;SDS011;6358;50.760;0.282;2024-01-16T13:40:41;3.07;;;1.20;;
12585;SDS011;6358;50.760;0.282;2024-01-16T13:43:07;2.10;;;1.20;;
12585;SDS011;6358;50.760;0.282;2024-01-16T13:45:33;1.63;;;1.07;;
12585;SDS011;6358;50.760;0.282;2024-01-16T13:48:00;2.93;;;1.20;;
12585;SDS011;6358;50.760;0.282;2024-01-16T13:50:27;1.30;;;1.07;;
12585;SDS011;6358;50.760;0.282;2024-01-16T13:52:53;1.87;;;1.20;;
12585;SDS011;6358;50.760;0.282;2024-01-16T13:55:20;1.07;;;0.80;;
12585;SDS011;6358;50.760;0.282;2024-01-16T13:57:46;2.30;;;1.13;;
12585;SDS011;6358;50.760;0.282;2024-01-16T14:00:13;1.70;;;0.80;;
12585;SDS011;6358;50.760;0.282;2024-01-16T14:02:40;2.07;;;1.03;;
12585;SDS011;6358;50.760;0.282;2024-01-16T14:05:07;0.93;;;0.90;;
12585;SDS011;6358;50.760;0.282;2024-01-16T14:07:37;8.57;;;1.20;;
12585;SDS011;6358;50.760;0.282;2024-01-16T14:10:13;3.43;;;1.23;;
12585;SDS011;6358;50.760;0.282;2024-01-16T14:12:40;1.60;;;1.10;;
12585;SDS011;6358;50.760;0.282;2024-01-16T14:15:10;1.90;;;1.00;;
12585;SDS011;6358;50.760;0.282;2024-01-16T14:17:47;3.20;;;1.10;;
12585;SDS011;6358;50.760;0.282;2024-01-16T14:20:14;1.13;;;1.03;;
12585;SDS011;6358;50.760;0.282;2024-01-16T14:22:40;2.13;;;1.23;;
12585;SDS011;6358;50.760;0.282;2024-01-16T14:25:07;0.97;;;0.90;;
12585;SDS011;6358;50.760;0.282;2024-01-16T14:27:39;1.13;;;0.97;;
12585;SDS011;6358;50.760;0.282;2024-01-16T14:30:09;1.53;;;1.07;;
12585;SDS011;6358;50.760;0.282;2024-01-16T14:32:39;1.70;;;0.90;;
12585;SDS011;6358;50.760;0.282;2024-01-16T14:35:06;1.33;;;1.07;;
12585;SDS011;6358;50.760;0.282;2024-01-16T14:37:33;1.87;;;1.20;;
12585;SDS011;6358;50.760;0.282;2024-01-16T14:40:00;2.83;;;1.10;;
12585;SDS011;6358;50.760;0.282;2024-01-16T14:42:28;0.90;;;0.90;;
12585;SDS011;6358;50.760;0.282;2024-01-16T14:44:54;1.33;;;0.83;;
12585;SDS011;6358;50.760;0.282;2024-01-16T14:47:21;2.10;;;1.20;;
12585;SDS011;6358;50.760;0.282;2024-01-16T14:49:50;1.23;;;1.07;;
12585;SDS011;6358;50.760;0.282;2024-01-16T14:52:16;1.23;;;1.10;;
12585;SDS011;6358;50.760;0.282;2024-01-16T14:54:43;3.03;;;1.00;;
12585;SDS011;6358;50.760;0.282;2024-01-16T14:57:09;1.87;;;1.20;;
12585;SDS011;6358;50.760;0.282;2024-01-16T14:59:36;1.13;;;1.03;;
12585;SDS011;6358;50.760;0.282;2024-01-16T15:02:03;2.90;;;1.23;;
12585;SDS011;6358;50.760;0.282;2024-01-16T15:04:38;1.33;;;1.20;;
12585;SDS011;6358;50.760;0.282;2024-01-16T15:07:05;1.20;;;1.10;;
12585;SDS011;6358;50.760;0.282;2024-01-16T15:09:31;1.03;;;0.90;;
12585;SDS011;6358;50.760;0.282;2024-01-16T15:12:02;3.70;;;1.30;;
12585;SDS011;6358;50.760;0.282;2024-01-16T15:14:29;2.07;;;1.17;;
12585;SDS011;6358;50.760;0.282;2024-01-16T15:16:55;2.47;;;1.10;;